Time;durP1;ratioP1;P1;durP2;ratioP2;P2;SDS_P1;SDS_P2;PMS_P1;PMS_P2;Temp;Humidity;BMP_temperature;BMP_pressure;BME280_temperature;BME280_humidity;BME280_pressure;Samples;Min_cycle;Max_cycle;Signal;HPM_P1;HPM_P2
2021/03/03 00:00:10;;;;;;;114.47;53.90;;;;;;;2.11;77.85;100333.17;2075687;86;21770;-88
2021/03/03 00:03:13;;;;;;;119.28;56.30;;;;;;;2.06;77.70;100334.70;2098314;84;21172;-88
2021/03/03 00:06:15;;;;;;;117.15;53.38;;;;;;;2.01;77.69;100326.36;2101545;85;21325;-88
2021/03/03 00:09:17;;;;;;;104.43;52.45;;;;;;;1.97;77.78;100333.47;2101472;85;21314;-89
2021/03/03 00:12:18;;;;;;;105.10;50.92;;;;;;;1.92;77.80;100330.75;2101307;85;21330;-87
2021/03/03 00:15:20;;;;;;;111.80;51.15;;;;;;;1.84;77.90;100325.20;2101597;85;21306;-88
2021/03/03 00:18:22;;;;;;;111.57;49.40;;;;;;;1.79;77.82;100331.07;2101680;85;21310;-89
2021/03/03 00:21:23;;;;;;;105.75;50.08;;;;;;;1.70;77.46;100328.07;2101425;85;21670;-88
2021/03/03 00:24:25;;;;;;;109.75;52.30;;;;;;;1.63;77.21;100326.73;2101285;85;21354;-89
2021/03/03 00:27:27;;;;;;;109.25;52.95;;;;;;;1.56;77.29;100323.30;2101289;85;21191;-90
2021/03/03 00:30:28;;;;;;;117.42;53.92;;;;;;;1.48;77.80;100321.13;2101237;85;21325;-89
2021/03/03 00:33:30;;;;;;;119.97;54.03;;;;;;;1.43;77.94;100317.49;2101479;85;21349;-89
2021/03/03 00:36:31;;;;;;;120.30;54.67;;;;;;;1.38;77.87;100319.97;2101269;85;21361;-89
2021/03/03 00:39:33;;;;;;;112.50;53.48;;;;;;;1.34;78.14;100323.14;2101507;85;21329;-88
2021/03/03 00:42:35;;;;;;;106.65;49.15;;;;;;;1.31;77.98;100328.48;2101260;85;21365;-88
2021/03/03 00:45:37;;;;;;;99.97;46.85;;;;;;;1.26;77.72;100321.89;2100874;83;21220;-89
2021/03/03 00:48:38;;;;;;;100.65;47.23;;;;;;;1.18;77.65;100318.41;2101091;85;21726;-88
2021/03/03 00:51:40;;;;;;;102.05;49.13;;;;;;;1.12;77.65;100318.76;2101225;85;21297;-89
2021/03/03 00:54:43;;;;;;;105.35;47.88;;;;;;;1.04;77.41;100317.03;2101106;85;21292;-89
2021/03/03 00:57:45;;;;;;;106.60;48.15;;;;;;;0.95;77.53;100317.52;2101654;84;21220;-88
2021/03/03 01:00:47;;;;;;;104.60;46.55;;;;;;;0.86;77.44;100307.21;2101438;85;21194;-89
2021/03/03 01:03:49;;;;;;;103.90;49.50;;;;;;;0.79;77.57;100312.30;2102037;85;21223;-88
2021/03/03 01:06:50;;;;;;;104.47;50.45;;;;;;;0.68;78.19;100305.12;2101810;85;21749;-89
2021/03/03 01:09:52;;;;;;;108.00;48.13;;;;;;;0.65;78.66;100307.86;2101184;85;21667;-89
2021/03/03 01:12:53;;;;;;;103.40;47.33;;;;;;;0.58;78.16;100303.92;2102182;85;21179;-88
2021/03/03 01:15:55;;;;;;;114.60;52.38;;;;;;;0.49;78.33;100298.77;2103439;85;21195;-88
2021/03/03 01:18:57;;;;;;;127.25;57.43;;;;;;;0.44;78.21;100299.45;2103162;85;21622;-89
2021/03/03 01:21:58;;;;;;;127.22;55.23;;;;;;;0.41;78.17;100303.94;2103326;85;21159;-89
2021/03/03 01:25:00;;;;;;;156.22;67.37;;;;;;;0.38;77.93;100289.92;2101937;85;21746;-89
2021/03/03 01:28:01;;;;;;;182.65;76.00;;;;;;;0.32;78.02;100297.49;2101176;85;21313;-89
2021/03/03 01:31:03;;;;;;;143.40;63.40;;;;;;;0.27;78.32;100297.73;2103012;85;21313;-88
2021/03/03 01:34:05;;;;;;;100.30;49.20;;;;;;;0.25;78.16;100301.27;2102881;85;21143;-89
2021/03/03 01:37:06;;;;;;;111.32;51.68;;;;;;;0.08;78.10;100297.40;2102954;84;21186;-89
2021/03/03 01:40:08;;;;;;;118.30;54.67;;;;;;;-0.10;78.10;100295.25;2101931;85;21304;-89
2021/03/03 01:43:10;;;;;;;106.45;49.27;;;;;;;-0.20;78.69;100295.31;2101493;84;21297;-89
2021/03/03 01:46:11;;;;;;;113.20;53.23;;;;;;;-0.18;78.58;100293.08;2101258;84;21171;-88
2021/03/03 01:49:13;;;;;;;108.27;48.83;;;;;;;-0.16;78.40;100296.41;2101209;85;21326;-89
2021/03/03 01:52:15;;;;;;;103.12;48.90;;;;;;;-0.18;78.27;100293.08;2101218;85;21326;-89
2021/03/03 01:55:16;;;;;;;96.35;46.23;;;;;;;-0.23;78.17;100287.30;2101937;85;21301;-88
2021/03/03 01:58:18;;;;;;;111.40;46.28;;;;;;;-0.23;78.27;100290.33;2101861;85;21309;-89
2021/03/03 02:01:23;;;;;;;93.10;44.13;;;;;;;-0.25;78.09;100287.00;2100969;84;21172;-89
2021/03/03 02:04:24;;;;;;;106.70;51.10;;;;;;;-0.29;77.96;100284.55;2075726;85;21745;-88
2021/03/03 02:07:26;;;;;;;100.65;47.03;;;;;;;-0.37;78.31;100281.95;2075944;85;21729;-88
2021/03/03 02:10:28;;;;;;;110.45;46.98;;;;;;;-0.38;78.49;100281.58;2075568;85;21328;-88
2021/03/03 02:13:29;;;;;;;106.75;47.03;;;;;;;-0.38;78.44;100277.71;2075723;86;21313;-88
2021/03/03 02:16:31;;;;;;;113.10;48.05;;;;;;;-0.42;78.53;100275.75;2075994;85;21185;-89
2021/03/03 02:19:32;;;;;;;106.47;45.80;;;;;;;-0.39;78.91;100274.77;2079230;84;21246;-89
2021/03/03 02:22:35;;;;;;;109.20;48.25;;;;;;;-0.37;78.78;100271.20;2077080;86;21280;-88
2021/03/03 02:25:37;;;;;;;96.15;49.20;;;;;;;-0.39;78.58;100263.18;2080207;85;21325;-88
2021/03/03 02:28:38;;;;;;;105.15;47.05;;;;;;;-0.34;79.20;100262.52;2079756;85;21163;-87
2021/03/03 02:31:40;;;;;;;101.40;47.43;;;;;;;-0.29;79.35;100257.52;2079579;85;21165;-89
2021/03/03 02:34:41;;;;;;;110.97;51.75;;;;;;;-0.23;79.13;100250.42;2079214;86;21809;-88
2021/03/03 02:37:43;;;;;;;114.05;51.53;;;;;;;-0.20;79.55;100247.69;2079665;85;21313;-88
2021/03/03 02:40:45;;;;;;;99.07;48.15;;;;;;;-0.17;79.85;100259.98;2079739;86;21175;-88
2021/03/03 02:43:46;;;;;;;104.07;47.27;;;;;;;-0.13;79.59;100251.64;2075994;85;21154;-88
2021/03/03 02:46:48;;;;;;;108.78;50.70;;;;;;;-0.12;79.32;100247.70;2077466;85;21317;-87
2021/03/03 02:49:49;;;;;;;110.10;52.00;;;;;;;-0.11;79.20;100245.95;2077393;85;21325;-89
2021/03/03 02:52:51;;;;;;;105.03;47.62;;;;;;;-0.12;79.28;100241.72;2075882;86;21150;-88
2021/03/03 02:55:53;;;;;;;97.42;44.95;;;;;;;-0.12;79.38;100245.58;2075770;85;21352;-89
2021/03/03 02:58:54;;;;;;;102.25;45.70;;;;;;;-0.15;79.21;100241.42;2075857;85;21704;-88
2021/03/03 03:01:56;;;;;;;105.15;48.23;;;;;;;-0.20;79.09;100236.94;2079188;83;21325;-89
2021/03/03 03:04:58;;;;;;;104.25;47.95;;;;;;;-0.22;78.98;100240.50;2101339;85;21136;-88
2021/03/03 03:07:59;;;;;;;95.00;44.90;;;;;;;-0.22;78.83;100236.64;2101487;85;21317;-89
2021/03/03 03:11:01;;;;;;;102.32;45.92;;;;;;;-0.24;78.76;100239.75;2101801;85;21340;-88
2021/03/03 03:14:03;;;;;;;91.35;44.03;;;;;;;-0.30;78.61;100235.72;2101452;83;21321;-87
2021/03/03 03:17:04;;;;;;;103.90;46.50;;;;;;;-0.35;78.78;100230.80;2101032;85;21136;-89
2021/03/03 03:20:06;;;;;;;97.00;45.30;;;;;;;-0.37;78.98;100228.73;2101080;85;21163;-89
2021/03/03 03:23:08;;;;;;;100.62;46.88;;;;;;;-0.39;78.90;100233.13;2101455;85;21345;-88
2021/03/03 03:26:10;;;;;;;105.72;46.98;;;;;;;-0.43;78.89;100230.33;2101516;85;21325;-89
2021/03/03 03:29:11;;;;;;;100.53;45.90;;;;;;;-0.42;79.23;100223.45;2101189;84;21329;-88
2021/03/03 03:32:13;;;;;;;103.85;48.33;;;;;;;-0.40;79.56;100225.03;2101511;85;21928;-88
2021/03/03 03:35:15;;;;;;;106.92;48.40;;;;;;;-0.36;79.79;100216.73;2101829;85;21315;-87
2021/03/03 03:38:16;;;;;;;95.60;45.85;;;;;;;-0.33;79.88;100213.99;2103227;85;21467;-88
2021/03/03 03:41:18;;;;;;;109.40;45.73;;;;;;;-0.34;79.12;100217.02;2102770;85;21171;-88
2021/03/03 03:44:20;;;;;;;98.87;46.15;;;;;;;-0.36;79.14;100221.88;2068572;85;21329;-86
2021/03/03 03:47:21;;;;;;;99.87;47.17;;;;;;;-0.45;78.86;100216.71;2101905;85;21786;-88
2021/03/03 03:50:23;;;;;;;106.40;47.20;;;;;;;-0.50;79.10;100212.22;2101964;85;21306;-87
2021/03/03 03:53:25;;;;;;;99.22;46.48;;;;;;;-0.61;78.95;100217.05;2102118;84;21355;-88
2021/03/03 03:56:27;;;;;;;104.65;46.48;;;;;;;-0.69;79.04;100220.44;2102369;85;21349;-88
2021/03/03 03:59:28;;;;;;;101.67;49.25;;;;;;;-0.72;78.85;100217.56;2101442;85;21330;-87
2021/03/03 04:02:30;;;;;;;108.78;52.85;;;;;;;-0.75;78.79;100212.53;2101511;85;21203;-88
2021/03/03 04:05:32;;;;;;;115.05;52.27;;;;;;;-0.76;78.77;100212.61;2101626;85;21723;-88
2021/03/03 04:08:33;;;;;;;120.50;55.58;;;;;;;-0.84;78.65;100209.11;2101749;85;21325;-86
2021/03/03 04:11:35;;;;;;;114.28;51.98;;;;;;;-0.91;78.62;100221.89;2102225;85;21337;-85
2021/03/03 04:14:37;;;;;;;101.22;48.45;;;;;;;-1.04;78.65;100214.34;2101617;85;21333;-84
2021/03/03 04:17:39;;;;;;;110.90;48.40;;;;;;;-1.10;78.95;100206.89;2101519;83;21754;-84
2021/03/03 04:20:41;;;;;;;103.10;46.95;;;;;;;-1.10;79.14;100208.17;2101187;85;21345;-86
2021/03/03 04:23:43;;;;;;;107.37;49.53;;;;;;;-1.06;79.11;100209.27;2101668;84;21754;-82
2021/03/03 04:26:45;;;;;;;105.30;47.43;;;;;;;-1.05;79.06;100210.09;2102357;85;21215;-83
2021/03/03 04:29:46;;;;;;;109.72;48.50;;;;;;;-1.09;78.89;100205.56;2102397;85;21180;-86
2021/03/03 04:32:48;;;;;;;154.23;63.45;;;;;;;-1.18;78.58;100210.66;2102212;85;21172;-85
2021/03/03 04:35:50;;;;;;;153.25;65.22;;;;;;;-1.27;78.49;100207.67;2102189;85;21730;-87
2021/03/03 04:38:52;;;;;;;197.90;82.17;;;;;;;-1.33;78.62;100206.66;2102079;85;21171;-84
2021/03/03 04:41:53;;;;;;;213.03;86.17;;;;;;;-1.36;78.89;100199.09;2102463;85;21341;-84
2021/03/03 04:44:55;;;;;;;212.23;86.45;;;;;;;-1.32;78.96;100199.33;2101760;85;21207;-85
2021/03/03 04:47:56;;;;;;;216.63;86.08;;;;;;;-1.34;78.95;100190.41;2101296;85;21315;-85
2021/03/03 04:50:58;;;;;;;208.70;86.02;;;;;;;-1.32;78.92;100189.87;2101446;85;21326;-84
2021/03/03 04:54:00;;;;;;;213.87;84.13;;;;;;;-1.32;78.91;100190.33;2101094;85;21317;-85
2021/03/03 04:57:01;;;;;;;170.12;69.87;;;;;;;-1.31;78.87;100193.28;2101229;85;21187;-86
2021/03/03 05:00:03;;;;;;;162.77;67.05;;;;;;;-1.29;79.11;100195.32;2101903;85;21325;-84
2021/03/03 05:03:05;;;;;;;158.07;64.92;;;;;;;-1.25;79.26;100196.41;2103666;84;21179;-82
2021/03/03 05:06:07;;;;;;;152.12;61.90;;;;;;;-1.22;79.31;100188.55;2102952;85;21302;-86
2021/03/03 05:09:08;;;;;;;132.85;56.33;;;;;;;-1.18;79.25;100188.81;2101046;85;21187;-85
2021/03/03 05:12:10;;;;;;;134.22;58.78;;;;;;;-1.14;79.68;100185.64;2101398;85;21312;-85
2021/03/03 05:15:11;;;;;;;131.15;57.73;;;;;;;-1.09;79.78;100182.87;2101964;84;21651;-84
2021/03/03 05:18:13;;;;;;;130.50;56.08;;;;;;;-1.06;79.85;100180.98;2101828;85;21790;-84
2021/03/03 05:21:14;;;;;;;128.75;57.60;;;;;;;-1.01;80.02;100185.45;2101461;85;21227;-85
2021/03/03 05:24:16;;;;;;;137.20;58.87;;;;;;;-1.01;79.75;100180.77;2100970;85;21321;-85
2021/03/03 05:27:17;;;;;;;114.22;54.20;;;;;;;-1.07;79.64;100181.06;2101319;85;21328;-85
2021/03/03 05:30:19;;;;;;;125.27;51.53;;;;;;;-1.05;79.67;100181.82;2101049;85;21647;-86
2021/03/03 05:33:21;;;;;;;120.08;47.70;;;;;;;-1.02;79.53;100181.22;2101227;85;21663;-85
2021/03/03 05:36:23;;;;;;;127.05;53.58;;;;;;;-1.06;79.27;100186.58;2101359;85;21362;-85
2021/03/03 05:39:25;;;;;;;151.82;63.48;;;;;;;-1.09;79.30;100188.85;2100917;85;21494;-85
2021/03/03 05:42:26;;;;;;;203.80;82.30;;;;;;;-1.08;79.44;100180.23;2101329;85;21333;-86
2021/03/03 05:45:28;;;;;;;181.07;76.57;;;;;;;-1.02;79.23;100191.50;2101015;85;21722;-85
2021/03/03 05:48:30;;;;;;;195.95;81.60;;;;;;;-1.06;78.97;100191.27;2100963;85;21739;-86
2021/03/03 05:51:32;;;;;;;195.72;78.22;;;;;;;-1.08;78.92;100193.54;2100766;85;21318;-91
2021/03/03 05:54:33;;;;;;;179.27;78.00;;;;;;;-1.11;78.50;100187.23;2100946;85;21758;-86
2021/03/03 05:57:35;;;;;;;197.40;85.15;;;;;;;-1.08;78.87;100189.69;2101022;85;21778;-87
2021/03/03 06:00:37;;;;;;;202.35;79.45;;;;;;;-0.97;78.75;100188.28;2101424;85;21773;-84
2021/03/03 06:03:39;;;;;;;196.95;81.15;;;;;;;-0.90;78.53;100184.98;2102779;85;22170;-86
2021/03/03 06:06:40;;;;;;;202.35;84.15;;;;;;;-0.83;78.55;100186.79;2105776;83;21166;-85
2021/03/03 06:09:42;;;;;;;198.75;78.55;;;;;;;-0.73;78.56;100183.74;2105294;83;21183;-85
2021/03/03 06:12:44;;;;;;;196.98;80.15;;;;;;;-0.64;78.54;100184.59;2105404;85;21190;-85
2021/03/03 06:15:45;;;;;;;207.57;83.27;;;;;;;-0.54;78.46;100186.73;2105703;83;21619;-87
2021/03/03 06:18:47;;;;;;;219.40;90.53;;;;;;;-0.49;78.23;100183.46;2106076;85;21317;-84
2021/03/03 06:21:49;;;;;;;213.72;90.05;;;;;;;-0.51;78.16;100181.42;2106499;84;21191;-86
2021/03/03 06:24:51;;;;;;;179.47;77.87;;;;;;;-0.42;78.45;100180.98;2106200;85;21789;-86
2021/03/03 06:27:53;;;;;;;185.43;77.42;;;;;;;-0.28;78.80;100172.11;2105520;83;21191;-87
2021/03/03 06:30:54;;;;;;;192.22;87.70;;;;;;;-0.08;78.85;100163.42;2105571;83;21175;-86
2021/03/03 06:33:58;;;;;;;191.73;83.33;;;;;;;0.13;78.83;100162.33;2117065;83;21132;-86
2021/03/03 06:37:00;;;;;;;205.57;88.82;;;;;;;0.30;78.64;100157.61;2128189;84;21307;-84
2021/03/03 06:40:01;;;;;;;185.10;84.25;;;;;;;0.43;78.56;100156.50;2128103;84;21318;-84
2021/03/03 06:43:03;;;;;;;179.12;79.07;;;;;;;0.62;78.62;100169.25;2127971;84;21156;-84
2021/03/03 06:46:05;;;;;;;145.10;65.40;;;;;;;0.76;78.51;100157.30;2127781;84;21306;-84
2021/03/03 06:49:07;;;;;;;147.72;68.55;;;;;;;0.88;78.49;100159.67;2127773;84;21327;-87
2021/03/03 06:52:09;;;;;;;158.60;72.82;;;;;;;1.01;78.72;100159.85;2127989;84;21188;-81
2021/03/03 06:55:10;;;;;;;169.82;74.53;;;;;;;1.07;78.53;100162.91;2128675;84;21373;-83
2021/03/03 06:58:13;;;;;;;181.60;80.75;;;;;;;1.10;78.36;100155.02;2128781;84;21755;-86
2021/03/03 07:01:14;;;;;;;189.25;81.95;;;;;;;1.19;78.67;100158.84;2129611;84;21734;-83
2021/03/03 07:04:16;;;;;;;174.27;84.40;;;;;;;1.42;79.09;100160.13;2128526;83;21148;-85
2021/03/03 07:07:20;;;;;;;171.72;79.00;;;;;;;1.66;79.21;100165.66;2128218;84;21755;-83
2021/03/03 07:10:22;;;;;;;187.25;85.62;;;;;;;1.89;78.96;100158.69;2128244;84;21592;-83
2021/03/03 07:13:24;;;;;;;178.05;83.03;;;;;;;2.08;78.83;100164.90;2128413;84;21290;-84
2021/03/03 07:16:26;;;;;;;205.10;95.17;;;;;;;2.27;78.82;100162.05;2128469;84;21171;-82
2021/03/03 07:19:27;;;;;;;203.88;91.55;;;;;;;2.41;78.79;100161.24;2127846;84;21326;-82
2021/03/03 07:22:29;;;;;;;181.85;85.60;;;;;;;2.53;78.83;100160.48;2127899;83;21306;-82
2021/03/03 07:25:31;;;;;;;171.62;80.03;;;;;;;2.70;78.90;100161.59;2127635;84;21211;-82
2021/03/03 07:28:32;;;;;;;155.27;74.30;;;;;;;2.89;78.99;100158.69;2127415;84;21353;-82
2021/03/03 07:31:34;;;;;;;163.12;77.87;;;;;;;3.06;78.69;100161.05;2127581;83;21743;-83
2021/03/03 07:34:36;;;;;;;162.55;77.55;;;;;;;3.15;78.68;100151.88;2127734;84;21294;-83
2021/03/03 07:37:37;;;;;;;151.78;70.57;;;;;;;3.29;78.92;100157.02;2128274;84;21338;-85
2021/03/03 07:40:39;;;;;;;172.32;79.55;;;;;;;3.39;78.91;100161.98;2129197;84;21318;-86
2021/03/03 07:43:40;;;;;;;164.82;79.20;;;;;;;3.46;79.18;100140.84;2128733;84;21156;-86
2021/03/03 07:46:42;;;;;;;160.75;78.70;;;;;;;3.64;79.21;100149.53;2128365;84;21311;-87
2021/03/03 07:49:43;;;;;;;158.60;80.00;;;;;;;3.81;79.23;100140.66;2128188;84;21310;-87
2021/03/03 07:52:45;;;;;;;156.80;80.80;;;;;;;3.97;79.24;100144.36;2127755;84;21334;-86
2021/03/03 07:55:46;;;;;;;144.15;71.40;;;;;;;4.16;79.23;100143.48;2127894;83;21129;-86
2021/03/03 07:58:48;;;;;;;142.93;67.45;;;;;;;4.34;79.24;100148.35;2127741;84;21275;-85
2021/03/03 08:01:50;;;;;;;133.52;67.82;;;;;;;4.48;79.22;100145.19;2127754;83;21184;-85
2021/03/03 08:04:51;;;;;;;125.67;63.48;;;;;;;4.63;79.10;100150.23;2127856;84;21349;-86
2021/03/03 08:07:56;;;;;;;121.85;61.35;;;;;;;4.78;79.27;100147.88;2127685;83;21179;-85
2021/03/03 08:10:59;;;;;;;124.50;59.40;;;;;;;4.98;79.23;100148.59;2127270;84;21188;-86
2021/03/03 08:14:01;;;;;;;99.25;53.25;;;;;;;5.18;79.30;100142.44;2127646;84;21330;-87
2021/03/03 08:17:03;;;;;;;99.67;52.53;;;;;;;5.38;79.31;100145.70;2128044;84;21311;-84
2021/03/03 08:20:05;;;;;;;100.70;51.08;;;;;;;5.57;79.30;100142.59;2127720;84;21350;-83
2021/03/03 08:23:06;;;;;;;97.50;50.60;;;;;;;5.75;79.05;100138.63;2127931;84;21360;-84
2021/03/03 08:26:11;;;;;;;114.62;60.60;;;;;;;5.91;78.98;100132.69;2127614;84;21323;-85
2021/03/03 08:29:14;;;;;;;108.07;55.25;;;;;;;6.05;78.92;100130.36;2129302;83;21154;-86
2021/03/03 08:32:16;;;;;;;101.18;49.03;;;;;;;6.20;78.63;100125.27;2114637;84;21733;-86
2021/03/03 08:35:17;;;;;;;92.57;48.92;;;;;;;6.36;78.47;100130.13;2206893;81;21199;-84
2021/03/03 08:38:25;;;;;;;93.27;49.73;;;;;;;6.50;78.35;100123.41;2206966;80;21579;-85
2021/03/03 08:41:25;;;;;;;94.15;50.00;;;;;;;6.66;78.41;100107.88;2206379;80;21163;-85
2021/03/03 08:44:27;;;;;;;77.20;44.63;;;;;;;6.81;78.31;100107.97;2206305;80;21148;-85
2021/03/03 08:47:29;;;;;;;92.62;47.05;;;;;;;6.94;77.67;100100.00;2206013;81;21175;-83
2021/03/03 08:50:31;;;;;;;92.05;48.08;;;;;;;7.06;77.53;100101.17;2206531;80;21172;-85
2021/03/03 08:53:33;;;;;;;90.17;48.42;;;;;;;7.17;77.55;100098.17;2206022;80;21172;-86
2021/03/03 08:56:35;;;;;;;87.35;46.15;;;;;;;7.24;76.64;100096.73;2206232;81;21168;-85
2021/03/03 08:59:36;;;;;;;90.40;45.35;;;;;;;7.29;76.56;100095.39;2206293;80;21144;-85
2021/03/03 09:02:38;;;;;;;81.95;46.30;;;;;;;7.40;76.74;100094.03;2206104;81;21813;-85
2021/03/03 09:05:39;;;;;;;82.25;43.60;;;;;;;7.55;76.66;100087.22;2198042;80;21318;-85
2021/03/03 09:08:41;;;;;;;84.62;46.23;;;;;;;7.69;76.42;100083.00;2195925;81;21325;-82
2021/03/03 09:11:42;;;;;;;84.62;44.18;;;;;;;7.80;76.04;100085.53;2197151;81;21258;-91
2021/03/03 09:14:44;;;;;;;75.70;41.15;;;;;;;7.92;75.75;100079.28;2177478;81;21147;-85
2021/03/03 09:17:48;;;;;;;81.57;44.13;;;;;;;8.04;74.75;100077.41;2196938;81;21289;-91
2021/03/03 09:20:49;;;;;;;68.52;39.20;;;;;;;8.21;74.50;100079.89;2177304;81;21309;-89
2021/03/03 09:23:51;;;;;;;78.75;42.23;;;;;;;8.34;73.87;100078.38;2177312;81;21314;-86
2021/03/03 09:26:53;;;;;;;73.90;40.75;;;;;;;8.60;74.79;100078.77;2197098;81;21998;-85
2021/03/03 09:29:55;;;;;;;70.97;39.90;;;;;;;8.83;73.72;100074.95;2196603;81;21157;-85
2021/03/03 09:32:57;;;;;;;77.95;39.48;;;;;;;8.97;73.99;100075.05;2197565;81;21143;-87
2021/03/03 09:35:59;;;;;;;70.08;40.05;;;;;;;9.05;71.94;100076.48;2197043;81;21156;-88
2021/03/03 09:39:01;;;;;;;54.38;30.25;;;;;;;9.13;72.71;100065.69;2196810;81;21172;-83
2021/03/03 09:42:02;;;;;;;69.22;38.02;;;;;;;9.19;71.24;100064.33;2196926;81;21164;-86
2021/03/03 09:45:04;;;;;;;60.10;35.23;;;;;;;9.21;71.07;100070.23;2178095;81;21243;-87
2021/03/03 09:48:06;;;;;;;60.90;34.23;;;;;;;9.24;71.13;100066.05;2197903;81;21282;-86
2021/03/03 09:51:08;;;;;;;55.40;33.45;;;;;;;9.29;70.40;100060.40;2196835;81;21283;-84
2021/03/03 09:54:09;;;;;;;65.42;35.33;;;;;;;9.30;70.25;100056.81;2196885;81;21294;-85
2021/03/03 09:57:14;;;;;;;59.73;34.27;;;;;;;9.34;70.81;100059.03;2196525;81;21322;-87
2021/03/03 10:00:16;;;;;;;53.73;32.45;;;;;;;9.51;70.07;100056.20;2196398;81;21109;-83
2021/03/03 10:03:18;;;;;;;58.58;29.20;;;;;;;9.57;68.75;100053.48;2196897;81;21133;-87
2021/03/03 10:06:20;;;;;;;59.60;30.45;;;;;;;9.59;68.64;100056.78;2196912;81;21327;-87
2021/03/03 10:09:21;;;;;;;52.00;28.17;;;;;;;9.65;67.84;100051.81;2197148;81;21327;-85
2021/03/03 10:12:25;;;;;;;51.05;28.47;;;;;;;9.69;68.73;100044.05;2197013;81;21282;-90
2021/03/03 10:15:31;;;;;;;49.98;27.32;;;;;;;9.80;68.19;100039.12;2197099;81;21290;-91
2021/03/03 10:18:33;;;;;;;43.70;25.70;;;;;;;9.86;67.19;100033.30;2177461;81;21172;-92
2021/03/03 10:21:37;;;;;;;42.23;24.98;;;;;;;9.98;67.08;100032.67;2198135;81;21314;-94
2021/03/03 10:24:41;;;;;;;38.23;23.10;;;;;;;10.08;65.68;100028.22;2197776;81;21310;-87
2021/03/03 10:27:45;;;;;;;37.00;22.15;;;;;;;10.18;65.72;100024.25;2197731;81;21279;-88
2021/03/03 10:30:46;;;;;;;39.23;23.38;;;;;;;10.29;65.33;100017.53;2197018;81;21279;-85
2021/03/03 10:33:48;;;;;;;41.60;23.75;;;;;;;10.37;64.26;100019.42;2197354;81;21243;-89
2021/03/03 10:36:53;;;;;;;31.55;17.77;;;;;;;10.40;64.41;100013.88;2200488;81;21142;-92
2021/03/03 10:39:54;;;;;;;39.25;20.90;;;;;;;10.53;60.32;100008.65;2201358;81;21710;-84
2021/03/03 10:42:56;;;;;;;38.80;23.62;;;;;;;10.66;63.75;100004.34;2200873;81;21298;-89
2021/03/03 10:45:58;;;;;;;35.15;20.95;;;;;;;10.76;63.06;100004.28;2201096;81;21763;-86
2021/03/03 10:48:59;;;;;;;35.20;21.27;;;;;;;10.85;62.18;99991.59;2119822;83;21342;-91
2021/03/03 10:52:01;;;;;;;32.25;20.35;;;;;;;10.94;62.66;99986.75;2120119;84;21326;-89
2021/03/03 10:55:03;;;;;;;37.88;20.12;;;;;;;11.09;60.98;99977.39;2120490;84;21298;-84
2021/03/03 10:58:05;;;;;;;38.67;21.17;;;;;;;11.14;62.04;99976.92;2120237;84;21731;-89
2021/03/03 11:01:06;;;;;;;37.70;22.67;;;;;;;11.20;60.37;99967.62;2201748;80;21705;-85
2021/03/03 11:04:08;;;;;;;32.38;19.95;;;;;;;11.22;60.37;99962.56;2202284;81;21290;-85
2021/03/03 11:07:10;;;;;;;35.88;19.40;;;;;;;11.22;58.96;99953.39;2203228;81;21249;-85
2021/03/03 11:10:12;;;;;;;30.20;18.87;;;;;;;11.24;58.99;99955.36;2201501;81;21155;-84
2021/03/03 11:13:13;;;;;;;31.95;19.15;;;;;;;11.31;55.88;99951.64;2121796;83;21327;-85
2021/03/03 11:16:15;;;;;;;32.17;19.30;;;;;;;11.36;57.66;99948.09;2181913;81;21307;-86
2021/03/03 11:19:17;;;;;;;32.13;19.57;;;;;;;11.40;58.51;99953.34;2204977;81;21156;-85
2021/03/03 11:22:18;;;;;;;28.00;17.10;;;;;;;11.44;57.87;99946.83;2122040;83;21120;-87
2021/03/03 11:25:20;;;;;;;29.30;18.17;;;;;;;11.53;56.92;99938.52;2120921;83;21149;-88
2021/03/03 11:28:22;;;;;;;33.67;19.92;;;;;;;11.59;57.24;99932.63;2120135;84;21176;-87
2021/03/03 11:31:24;;;;;;;35.00;18.10;;;;;;;11.64;57.24;99927.75;2201932;81;21145;-88
2021/03/03 11:34:25;;;;;;;31.02;16.95;;;;;;;11.70;56.96;99921.85;2120242;83;21176;-88
2021/03/03 11:37:27;;;;;;;34.10;16.77;;;;;;;11.79;56.07;99918.77;2120227;84;21752;-87
2021/03/03 11:40:29;;;;;;;25.08;15.75;;;;;;;11.87;55.94;99910.97;2201937;80;21613;-87
2021/03/03 11:43:31;;;;;;;23.52;14.20;;;;;;;11.93;54.91;99907.23;2202158;81;21327;-87
2021/03/03 11:46:33;;;;;;;26.10;17.00;;;;;;;11.99;54.53;99898.39;2201947;81;21314;-88
2021/03/03 11:49:35;;;;;;;22.37;14.23;;;;;;;12.12;53.67;99896.94;2202171;81;21704;-86
2021/03/03 11:52:36;;;;;;;23.75;14.07;;;;;;;12.19;52.87;99890.07;2201879;81;21295;-88
2021/03/03 11:55:38;;;;;;;20.57;12.88;;;;;;;12.26;53.40;99888.13;2120191;83;21283;-89
2021/03/03 11:58:40;;;;;;;20.55;13.43;;;;;;;12.32;52.41;99890.91;2120634;83;21755;-87
2021/03/03 12:01:41;;;;;;;21.68;13.30;;;;;;;12.37;51.11;99879.92;2120922;84;21303;-86
2021/03/03 12:04:43;;;;;;;18.52;10.72;;;;;;;12.41;51.05;99872.03;2120373;84;21342;-88
2021/03/03 12:07:48;;;;;;;17.50;11.03;;;;;;;12.44;50.84;99869.10;2120393;83;21298;-87
2021/03/03 12:10:50;;;;;;;18.92;12.15;;;;;;;12.47;50.94;99864.33;2201705;80;21296;-88
2021/03/03 12:13:54;;;;;;;21.23;11.57;;;;;;;12.51;49.92;99866.13;2119855;83;21380;-87
2021/03/03 12:17:08;;;;;;;;;;;;;;;;;;;;;
2021/03/03 12:34:46;;;;;;;10.43;6.90;;;;;;;12.64;46.44;99827.06;2293965;76;22672;-86
2021/03/03 12:41:51;;;;;;;11.08;7.92;;;;;;;12.65;45.50;99816.05;2172190;80;21391;-88
2021/03/03 13:34:29;;;;;;;10.82;6.62;;;;;;;13.35;42.67;99727.64;2272741;77;22829;-85
2021/03/03 13:37:30;;;;;;;9.03;7.12;;;;;;;13.33;42.22;99732.72;2269476;78;21278;-84
2021/03/03 13:40:32;;;;;;;11.75;7.10;;;;;;;13.34;42.22;99725.97;2269218;78;21320;-84
2021/03/03 13:43:34;;;;;;;10.05;6.65;;;;;;;13.38;43.18;99721.20;2269532;78;21286;-85
2021/03/03 13:46:36;;;;;;;10.55;6.75;;;;;;;13.44;42.56;99704.73;2269499;78;21127;-84
2021/03/03 13:49:38;;;;;;;11.40;6.40;;;;;;;13.47;42.62;99709.64;2269281;78;21293;-87
2021/03/03 13:52:40;;;;;;;12.50;7.17;;;;;;;13.60;41.61;99699.34;2269420;78;21273;-87
2021/03/03 13:55:44;;;;;;;12.35;7.35;;;;;;;13.63;41.04;99696.38;2235022;78;21698;-87
2021/03/03 13:58:45;;;;;;;13.45;7.10;;;;;;;13.61;41.59;99697.03;2229616;80;21167;-86
2021/03/03 14:01:47;;;;;;;15.80;9.43;;;;;;;13.61;41.33;99693.58;2229169;80;21316;-86
2021/03/03 14:04:49;;;;;;;9.98;6.92;;;;;;;13.63;41.75;99681.09;2229089;80;21336;-86
2021/03/03 14:07:50;;;;;;;10.93;7.12;;;;;;;13.62;41.26;99676.33;2229077;80;21151;-85
2021/03/03 14:10:52;;;;;;;10.90;6.30;;;;;;;13.61;41.51;99675.98;2229334;80;21171;-85
2021/03/03 14:13:53;;;;;;;14.53;6.90;;;;;;;13.58;40.40;99663.19;2230819;80;21321;-86
2021/03/03 14:16:57;;;;;;;10.00;6.22;;;;;;;13.68;41.72;99655.55;2229528;80;21185;-86
2021/03/03 14:19:59;;;;;;;11.80;5.55;;;;;;;13.70;41.35;99648.29;2229890;80;21309;-85
2021/03/03 14:23:02;;;;;;;9.43;5.90;;;;;;;13.67;40.87;99641.58;2230355;80;21143;-84
2021/03/03 14:26:03;;;;;;;12.70;6.90;;;;;;;13.66;40.58;99636.81;2230412;80;21768;-85
2021/03/03 14:29:05;;;;;;;12.58;6.80;;;;;;;13.67;40.92;99634.99;2231174;80;21280;-84
2021/03/03 14:32:07;;;;;;;14.87;6.25;;;;;;;13.68;40.32;99640.58;2228580;80;21626;-85
2021/03/03 14:35:09;;;;;;;12.80;6.58;;;;;;;13.69;39.62;99628.23;2225465;79;21611;-85
2021/03/03 14:38:10;;;;;;;9.38;6.00;;;;;;;13.70;39.92;99624.61;2228385;79;21281;-86
2021/03/03 14:41:12;;;;;;;12.50;6.58;;;;;;;13.65;39.09;99616.75;2225679;79;21306;-86
2021/03/03 14:44:13;;;;;;;13.03;8.30;;;;;;;13.66;39.50;99619.70;2225261;80;21257;-87
2021/03/03 14:47:15;;;;;;;13.18;6.65;;;;;;;13.63;39.60;99612.17;2225149;79;21790;-86
2021/03/03 14:50:17;;;;;;;9.13;6.17;;;;;;;13.59;39.40;99611.38;2225152;80;21610;-86
2021/03/03 14:53:19;;;;;;;14.40;7.25;;;;;;;13.56;39.12;99604.66;2225280;79;21301;-88
2021/03/03 14:56:21;;;;;;;16.95;6.83;;;;;;;13.53;39.42;99600.23;2225548;79;21163;-88